Time;durP1;ratioP1;P1;durP2;ratioP2;P2;SDS_P1;SDS_P2;PMS_P1;PMS_P2;Temp;Humidity;BMP_temperature;BMP_pressure;BME280_temperature;BME280_humidity;BME280_pressure;Samples;Min_cycle;Max_cycle;Signal;HPM_P1;HPM_P2
2021/07/08 00:00:23;;;;;;;17.63;3.78;;;;;;;15.47;100.00;98235.94;4978612;28;20059;-81
2021/07/08 00:02:50;;;;;;;19.42;4.05;;;;;;;15.32;100.00;98241.94;4979153;28;20063;-81
2021/07/08 00:05:21;;;;;;;24.65;4.30;;;;;;;15.27;100.00;98247.59;4981658;28;20093;-81
2021/07/08 00:07:51;;;;;;;18.23;4.00;;;;;;;15.26;100.00;98246.78;4986232;28;20123;-82
2021/07/08 00:10:22;;;;;;;24.70;4.07;;;;;;;15.14;100.00;98240.44;4990087;28;20090;-82
2021/07/08 00:12:48;;;;;;;17.65;4.43;;;;;;;15.13;100.00;98236.09;4975112;28;20047;-83
2021/07/08 00:15:18;;;;;;;20.60;4.25;;;;;;;15.18;100.00;98235.91;4991362;28;20091;-80
2021/07/08 00:17:47;;;;;;;18.83;3.95;;;;;;;15.17;100.00;98235.13;4989966;28;20050;-81
2021/07/08 00:20:17;;;;;;;27.75;4.05;;;;;;;15.12;100.00;98232.59;4975727;28;20159;-83
2021/07/08 00:22:44;;;;;;;15.95;4.00;;;;;;;15.10;100.00;98229.38;4975217;28;20042;-81
2021/07/08 00:25:14;;;;;;;18.38;4.38;;;;;;;15.17;100.00;98237.88;4974970;28;20098;-83
2021/07/08 00:27:41;;;;;;;22.73;4.45;;;;;;;15.21;100.00;98237.97;4991425;28;20581;-82
2021/07/08 00:30:09;;;;;;;20.00;4.43;;;;;;;15.18;100.00;98235.91;4991953;28;20070;-81
2021/07/08 00:32:37;;;;;;;21.08;3.90;;;;;;;15.13;100.00;98247.00;4963139;28;20046;-82
2021/07/08 00:35:04;;;;;;;17.13;4.10;;;;;;;15.05;100.00;98245.94;4979721;28;20045;-82
2021/07/08 00:37:31;;;;;;;24.70;3.85;;;;;;;15.07;100.00;98251.88;4978266;28;20074;-81
2021/07/08 00:39:59;;;;;;;12.23;4.22;;;;;;;15.05;100.00;98245.13;4977752;28;20062;-81
2021/07/08 00:42:26;;;;;;;16.55;4.43;;;;;;;15.07;100.00;98223.81;4978063;28;20528;-81
2021/07/08 00:44:52;;;;;;;13.52;4.13;;;;;;;15.02;100.00;98215.81;4977825;28;20051;-82
2021/07/08 00:47:19;;;;;;;21.33;3.92;;;;;;;14.80;100.00;98211.41;4979373;28;20051;-81
2021/07/08 00:49:49;;;;;;;22.13;4.00;;;;;;;14.78;100.00;98219.13;4961959;28;20047;-81
2021/07/08 00:52:16;;;;;;;20.50;4.13;;;;;;;14.80;100.00;98220.41;4979916;28;20047;-82
2021/07/08 00:54:43;;;;;;;21.92;4.00;;;;;;;14.81;100.00;98230.16;4961561;28;20038;-82
2021/07/08 00:57:10;;;;;;;11.07;4.45;;;;;;;14.76;100.00;98230.34;4977737;28;20134;-82
2021/07/08 00:59:45;;;;;;;19.75;3.85;;;;;;;14.82;100.00;98225.50;4978579;28;20109;-82
2021/07/08 01:02:15;;;;;;;18.50;4.70;;;;;;;14.81;100.00;98223.94;4959062;28;20443;-82
2021/07/08 01:04:43;;;;;;;13.82;3.67;;;;;;;14.81;100.00;98229.38;4973753;28;20101;-81
2021/07/08 01:07:18;;;;;;;12.40;3.60;;;;;;;14.71;100.00;98230.53;4958662;28;20093;-80
2021/07/08 01:09:44;;;;;;;25.85;4.03;;;;;;;14.51;100.00;98227.72;4976769;28;20043;-81
2021/07/08 01:12:11;;;;;;;22.80;4.18;;;;;;;14.49;100.00;98238.16;4976562;28;20065;-80
2021/07/08 01:14:37;;;;;;;21.52;4.03;;;;;;;14.58;100.00;98252.56;4977254;28;20055;-81
2021/07/08 01:17:06;;;;;;;16.67;3.78;;;;;;;14.69;100.00;98246.41;4978311;28;20085;-80
2021/07/08 01:19:35;;;;;;;19.67;4.15;;;;;;;14.72;100.00;98239.50;4961873;28;20062;-81
2021/07/08 01:22:03;;;;;;;24.73;4.03;;;;;;;14.77;100.00;98242.84;4962488;28;20051;-81
2021/07/08 01:24:30;;;;;;;20.20;3.65;;;;;;;14.74;100.00;98231.81;4978907;28;20054;-81
2021/07/08 01:26:59;;;;;;;27.75;4.10;;;;;;;14.62;100.00;98240.69;4980522;28;20045;-81
2021/07/08 01:29:26;;;;;;;23.80;4.65;;;;;;;14.67;100.00;98228.78;4963748;28;20047;-81
2021/07/08 01:31:53;;;;;;;17.67;3.88;;;;;;;14.68;100.00;98233.94;4982642;28;20415;-82
2021/07/08 01:34:20;;;;;;;33.85;3.70;;;;;;;14.66;100.00;98221.75;4986333;28;20434;-82
2021/07/08 01:36:58;;;;;;;22.83;3.75;;;;;;;14.71;100.00;98233.25;4987375;28;20401;-81
2021/07/08 01:39:25;;;;;;;18.45;4.18;;;;;;;14.75;100.00;98228.75;4980249;28;20047;-80
2021/07/08 01:41:52;;;;;;;21.10;3.72;;;;;;;14.76;100.00;98215.94;4981784;28;20407;-82
2021/07/08 01:44:19;;;;;;;18.02;3.50;;;;;;;14.79;100.00;98223.44;4983492;28;20043;-81
2021/07/08 01:46:45;;;;;;;20.23;3.53;;;;;;;14.66;100.00;98217.09;4984508;28;20043;-82
2021/07/08 01:49:12;;;;;;;20.10;4.05;;;;;;;14.73;100.00;98222.03;4984574;28;20057;-81
2021/07/08 01:51:41;;;;;;;23.33;3.70;;;;;;;14.75;100.00;98212.41;4986196;28;20087;-80
2021/07/08 01:54:08;;;;;;;10.20;4.00;;;;;;;14.73;100.00;98213.88;4979749;28;20051;-83
2021/07/08 01:56:35;;;;;;;13.63;4.13;;;;;;;14.68;100.00;98216.78;4982356;28;20050;-81
2021/07/08 01:59:03;;;;;;;16.83;3.55;;;;;;;14.74;100.00;98218.97;4965013;28;20057;-82
2021/07/08 02:01:30;;;;;;;20.80;4.22;;;;;;;14.78;100.00;98217.22;4981808;28;20043;-81
2021/07/08 02:03:56;;;;;;;18.23;4.75;;;;;;;14.81;100.00;98221.22;4982470;28;20061;-81
2021/07/08 02:06:23;;;;;;;22.40;4.22;;;;;;;14.53;100.00;98220.03;4982363;28;20447;-81
2021/07/08 02:08:49;;;;;;;16.60;3.67;;;;;;;14.51;100.00;98211.38;4982351;28;20408;-82
2021/07/08 02:11:17;;;;;;;20.80;4.47;;;;;;;14.57;100.00;98212.81;4981739;28;20058;-82
2021/07/08 02:13:45;;;;;;;20.25;4.63;;;;;;;14.59;100.00;98214.06;4963813;28;20047;-82
2021/07/08 02:16:12;;;;;;;14.23;4.22;;;;;;;14.75;100.00;98226.03;4980433;28;20118;-81
2021/07/08 02:18:40;;;;;;;17.73;4.30;;;;;;;14.77;100.00;98233.88;4982062;28;20052;-82
2021/07/08 02:21:09;;;;;;;17.58;4.57;;;;;;;14.75;100.00;98223.31;4983323;28;20125;-82
2021/07/08 02:23:36;;;;;;;12.48;5.03;;;;;;;14.75;100.00;98217.88;4963461;28;20055;-82
2021/07/08 02:26:07;;;;;;;19.13;5.07;;;;;;;14.71;100.00;98227.81;4981663;28;20047;-82
2021/07/08 02:28:35;;;;;;;16.17;4.80;;;;;;;14.73;100.00;98236.47;4964536;28;20047;-82
2021/07/08 02:31:01;;;;;;;17.65;4.50;;;;;;;14.73;100.00;98228.31;4964657;28;20097;-82
2021/07/08 02:33:28;;;;;;;16.98;4.63;;;;;;;14.79;100.00;98231.63;4961693;28;20054;-82
2021/07/08 02:35:58;;;;;;;24.80;5.20;;;;;;;14.76;100.00;98224.91;5037007;22;20119;-82
2021/07/08 02:38:25;;;;;;;16.95;5.05;;;;;;;14.79;100.00;98213.34;5016512;28;20056;-84
2021/07/08 02:40:51;;;;;;;13.68;4.68;;;;;;;14.83;100.00;98221.66;5016184;28;20061;-82
2021/07/08 02:43:18;;;;;;;14.63;5.53;;;;;;;14.87;100.00;98215.22;5001120;28;20076;-81
2021/07/08 02:45:45;;;;;;;18.33;5.53;;;;;;;14.90;100.00;98213.78;4996484;28;20457;-84
2021/07/08 02:48:16;;;;;;;36.15;5.45;;;;;;;14.78;100.00;98216.41;5033795;23;20494;-81
2021/07/08 02:50:45;;;;;;;17.65;5.60;;;;;;;14.79;100.00;98212.53;5020587;28;20037;-81
2021/07/08 02:53:14;;;;;;;19.48;4.55;;;;;;;14.88;100.00;98216.84;5019019;28;20049;-82
2021/07/08 02:55:41;;;;;;;26.25;4.80;;;;;;;14.76;100.00;98219.44;5003668;28;20052;-81
2021/07/08 02:58:09;;;;;;;17.60;4.75;;;;;;;14.81;100.00;98218.47;5039463;28;20048;-82
2021/07/08 03:00:36;;;;;;;17.75;5.18;;;;;;;14.89;100.00;98220.38;5000783;28;20442;-80
2021/07/08 03:03:04;;;;;;;22.77;4.50;;;;;;;14.96;100.00;98215.19;5021783;28;20114;-81
2021/07/08 03:05:31;;;;;;;22.88;4.70;;;;;;;14.92;100.00;98223.22;5018948;28;20037;-85
2021/07/08 03:08:00;;;;;;;16.02;4.93;;;;;;;14.89;100.00;98212.97;4999096;28;20103;-84
2021/07/08 03:10:29;;;;;;;16.85;4.60;;;;;;;14.88;100.00;98214.13;5032743;28;20042;-82
2021/07/08 03:12:56;;;;;;;30.02;5.10;;;;;;;14.78;100.00;98225.38;4997425;28;20149;-82
2021/07/08 03:15:27;;;;;;;17.08;4.88;;;;;;;14.71;100.00;98221.56;5015260;28;20061;-83
2021/07/08 03:17:55;;;;;;;22.48;5.60;;;;;;;14.70;100.00;98234.41;5015082;28;20041;-82
2021/07/08 03:20:26;;;;;;;17.38;4.93;;;;;;;14.75;100.00;98238.88;4996859;28;20049;-83
2021/07/08 03:22:53;;;;;;;19.10;5.35;;;;;;;14.87;100.00;98236.22;4998089;28;20087;-82
2021/07/08 03:25:22;;;;;;;16.27;5.82;;;;;;;14.90;100.00;98239.13;5013521;28;20163;-81
2021/07/08 03:27:50;;;;;;;33.03;5.38;;;;;;;14.89;100.00;98232.06;4997398;28;20108;-81
2021/07/08 03:30:20;;;;;;;14.57;5.18;;;;;;;14.99;100.00;98228.19;4996359;28;20107;-81
2021/07/08 03:32:49;;;;;;;20.13;5.78;;;;;;;15.18;100.00;98235.91;4992571;28;20230;-79
2021/07/08 03:35:22;;;;;;;17.55;5.53;;;;;;;15.19;100.00;98218.44;4994020;28;20104;-80
2021/07/08 03:37:49;;;;;;;22.08;5.55;;;;;;;15.38;100.00;98238.66;5012874;28;20049;-81
2021/07/08 03:40:19;;;;;;;19.27;6.05;;;;;;;15.42;100.00;98233.38;4992788;28;20062;-80
2021/07/08 03:42:52;;;;;;;13.52;5.47;;;;;;;15.41;100.00;98234.47;4994491;28;20149;-82
2021/07/08 03:45:20;;;;;;;17.23;4.75;;;;;;;15.46;100.00;98235.13;5010355;28;20051;-81
2021/07/08 03:47:47;;;;;;;23.70;4.70;;;;;;;15.45;100.00;98238.16;4978352;28;20422;-81
2021/07/08 03:50:14;;;;;;;19.98;5.10;;;;;;;15.45;100.00;98236.28;5011420;28;20446;-80
2021/07/08 03:52:42;;;;;;;16.15;4.90;;;;;;;15.49;100.00;98237.19;5008321;28;20464;-81
2021/07/08 03:55:11;;;;;;;14.35;4.95;;;;;;;15.55;100.00;98241.34;4992678;28;20048;-83
2021/07/08 03:57:52;;;;;;;21.80;4.90;;;;;;;15.65;100.00;98237.41;4992868;28;20405;-80
2021/07/08 04:00:31;;;;;;;22.02;5.25;;;;;;;15.71;100.00;98240.72;5008103;28;20041;-82
2021/07/08 04:03:12;;;;;;;19.05;5.25;;;;;;;15.76;100.00;98233.16;4994357;28;20049;-84
2021/07/08 04:05:40;;;;;;;21.92;5.70;;;;;;;15.81;100.00;98243.06;4980617;28;20069;-83
2021/07/08 04:08:09;;;;;;;24.83;6.25;;;;;;;15.83;100.00;98238.06;4980311;28;20060;-82
2021/07/08 04:10:37;;;;;;;28.17;5.90;;;;;;;15.93;100.00;98232.97;4982642;28;20085;-83
2021/07/08 04:13:13;;;;;;;12.63;5.53;;;;;;;15.97;100.00;98223.00;5000156;28;20102;-85
2021/07/08 04:15:41;;;;;;;14.63;5.05;;;;;;;16.01;100.00;98221.19;5028348;28;20060;-84
2021/07/08 04:18:11;;;;;;;14.90;4.65;;;;;;;16.10;100.00;98224.63;5016880;28;20046;-85
2021/07/08 04:20:42;;;;;;;16.15;5.15;;;;;;;16.21;100.00;98225.81;5052207;28;20041;-85
2021/07/08 04:23:10;;;;;;;12.57;5.30;;;;;;;16.20;100.00;98213.31;5015141;28;20541;-84
2021/07/08 04:25:38;;;;;;;32.63;5.30;;;;;;;16.07;100.00;98206.19;4999697;28;20042;-80
2021/07/08 04:28:05;;;;;;;17.58;5.35;;;;;;;16.07;100.00;98216.31;5031458;28;20061;-80
2021/07/08 04:30:34;;;;;;;25.05;7.53;;;;;;;16.18;100.00;98209.31;4997143;28;20041;-79
2021/07/08 04:33:01;;;;;;;19.40;7.30;;;;;;;16.38;100.00;98226.78;5015211;28;20045;-78
2021/07/08 04:35:33;;;;;;;23.73;7.55;;;;;;;16.41;100.00;98223.38;5017523;28;20052;-78
2021/07/08 04:38:00;;;;;;;19.27;7.45;;;;;;;16.33;100.00;98216.84;5035495;28;20052;-78
2021/07/08 04:40:29;;;;;;;15.50;7.35;;;;;;;16.18;100.00;98215.53;5034795;28;20056;-79
2021/07/08 04:42:56;;;;;;;15.95;7.40;;;;;;;16.23;100.00;98218.06;5001023;28;20053;-79
2021/07/08 04:45:22;;;;;;;20.17;7.75;;;;;;;16.25;100.00;98217.75;5015456;28;20038;-78
2021/07/08 04:47:49;;;;;;;15.30;7.65;;;;;;;16.15;100.00;98212.72;4999901;28;20053;-78
2021/07/08 04:50:22;;;;;;;18.95;7.95;;;;;;;16.10;100.00;98208.22;5014260;28;20060;-78
2021/07/08 04:52:49;;;;;;;18.30;8.35;;;;;;;16.25;100.00;98195.09;5018784;28;20131;-78
2021/07/08 04:55:21;;;;;;;14.25;8.07;;;;;;;16.16;100.00;98195.97;5003106;28;20096;-78
2021/07/08 04:57:52;;;;;;;16.58;7.78;;;;;;;16.26;100.00;98192.00;5016937;28;20073;-85
2021/07/08 05:00:21;;;;;;;19.23;7.30;;;;;;;16.37;100.00;98192.38;4998444;28;20045;-85
2021/07/08 05:02:49;;;;;;;16.25;7.40;;;;;;;16.40;100.00;98192.50;5035662;28;20421;-85
2021/07/08 05:05:18;;;;;;;15.45;7.20;;;;;;;16.30;100.00;98183.94;4998376;28;20047;-86
2021/07/08 05:07:45;;;;;;;11.88;7.25;;;;;;;16.40;100.00;98197.16;4998459;28;20052;-85
2021/07/08 05:10:14;;;;;;;15.23;6.65;;;;;;;16.49;100.00;98203.34;5000750;28;20064;-83
2021/07/08 05:12:41;;;;;;;18.98;6.40;;;;;;;16.75;100.00;98193.69;5017190;28;20045;-84
2021/07/08 05:15:10;;;;;;;13.10;6.40;;;;;;;16.80;100.00;98192.69;5016297;28;20069;-84
2021/07/08 05:17:37;;;;;;;16.02;6.13;;;;;;;16.89;100.00;98193.38;5017848;28;20065;-84
2021/07/08 05:20:06;;;;;;;12.35;5.82;;;;;;;16.96;100.00;98190.06;5017361;28;20575;-85
2021/07/08 05:22:37;;;;;;;11.50;5.70;;;;;;;17.07;100.00;98180.25;5016375;28;20501;-85
2021/07/08 05:25:09;;;;;;;15.00;6.07;;;;;;;17.06;100.00;98170.47;4999771;28;20056;-85
2021/07/08 05:27:36;;;;;;;12.95;6.10;;;;;;;17.09;100.00;98178.75;5001652;28;20128;-85
2021/07/08 05:30:06;;;;;;;11.30;5.43;;;;;;;17.26;100.00;98170.31;5015935;28;20060;-85
2021/07/08 05:32:34;;;;;;;13.85;5.70;;;;;;;17.50;100.00;98179.63;5000856;28;20049;-84
2021/07/08 05:35:04;;;;;;;14.95;6.10;;;;;;;17.44;100.00;98154.41;5017102;28;20088;-84
2021/07/08 05:37:35;;;;;;;14.77;5.80;;;;;;;17.51;100.00;98159.28;5001906;28;20045;-83
2021/07/08 05:40:05;;;;;;;13.25;5.45;;;;;;;17.65;100.00;98178.91;5000802;28;20537;-84
2021/07/08 05:42:35;;;;;;;18.10;5.55;;;;;;;17.97;100.00;98175.13;5018011;28;20054;-83
2021/07/08 05:45:04;;;;;;;11.50;5.47;;;;;;;18.17;100.00;98173.31;4998322;28;20090;-84
2021/07/08 05:47:36;;;;;;;14.07;5.45;;;;;;;18.13;100.00;98175.16;5002033;28;20041;-84
2021/07/08 05:50:04;;;;;;;12.95;5.32;;;;;;;18.17;100.00;98165.09;5001029;28;20132;-83
2021/07/08 05:52:31;;;;;;;14.63;5.03;;;;;;;18.21;100.00;98175.00;4999076;28;20076;-83
2021/07/08 05:54:58;;;;;;;13.43;4.55;;;;;;;18.03;100.00;98160.81;5030462;28;20116;-82
2021/07/08 05:57:28;;;;;;;9.43;5.00;;;;;;;18.19;100.00;98177.31;4998265;28;20041;-85
2021/07/08 05:59:58;;;;;;;12.60;5.32;;;;;;;18.11;100.00;98177.44;5014360;28;20045;-85
2021/07/08 06:02:29;;;;;;;11.57;5.90;;;;;;;18.01;100.00;98182.28;4999713;28;20120;-83
2021/07/08 06:04:56;;;;;;;8.30;5.68;;;;;;;18.11;100.00;98191.16;5014222;28;20147;-83
2021/07/08 06:07:25;;;;;;;14.18;5.30;;;;;;;18.29;100.00;98195.16;4998398;28;20160;-83
2021/07/08 06:09:57;;;;;;;19.15;5.30;;;;;;;18.55;100.00;98190.03;4997889;28;20076;-84
2021/07/08 06:12:23;;;;;;;9.05;5.05;;;;;;;18.64;100.00;98191.44;5014344;28;20136;-83
2021/07/08 06:14:50;;;;;;;17.02;5.70;;;;;;;18.68;100.00;98191.53;5014230;28;20446;-82
2021/07/08 06:17:18;;;;;;;12.25;5.55;;;;;;;18.84;100.00;98189.56;5015614;28;20049;-85
2021/07/08 06:19:45;;;;;;;18.40;6.95;;;;;;;18.94;100.00;98178.06;4999834;28;20099;-84
2021/07/08 06:22:12;;;;;;;11.32;6.43;;;;;;;19.08;100.00;98189.34;5015754;28;20060;-84
2021/07/08 06:24:39;;;;;;;12.90;6.50;;;;;;;19.01;100.00;98182.91;5012960;28;20053;-84
2021/07/08 06:27:06;;;;;;;17.63;5.07;;;;;;;19.23;100.00;98193.22;5015449;28;20409;-85
2021/07/08 06:29:36;;;;;;;9.57;5.43;;;;;;;19.13;100.00;98178.09;5016650;28;20113;-85
2021/07/08 06:32:05;;;;;;;12.80;5.55;;;;;;;19.19;100.00;98184.91;5024479;28;20119;-85
2021/07/08 06:34:36;;;;;;;14.57;5.57;;;;;;;19.34;100.00;98188.78;5009065;28;20493;-85
2021/07/08 06:37:16;;;;;;;14.70;5.53;;;;;;;19.35;100.00;98184.88;5025855;28;20048;-86
2021/07/08 06:39:44;;;;;;;8.85;5.00;;;;;;;19.29;100.00;98200.84;5002530;28;20580;-85
2021/07/08 06:42:13;;;;;;;9.77;4.82;;;;;;;19.21;100.00;98195.53;5001476;28;20053;-85
2021/07/08 06:44:41;;;;;;;16.13;5.57;;;;;;;19.37;100.00;98201.81;5016948;28;20045;-85
2021/07/08 06:47:10;;;;;;;10.07;5.30;;;;;;;19.49;100.00;98223.66;5000466;28;20136;-85
2021/07/08 06:49:38;;;;;;;8.02;4.25;;;;;;;19.63;100.00;98220.44;5000522;28;20072;-86
2021/07/08 06:52:05;;;;;;;15.52;4.43;;;;;;;19.85;100.00;98226.00;5035990;28;20049;-85
2021/07/08 06:54:33;;;;;;;10.60;3.67;;;;;;;20.05;100.00;98223.28;5001016;28;20049;-85
2021/07/08 06:56:59;;;;;;;6.25;3.25;;;;;;;20.27;100.00;98211.56;5016831;28;20049;-87
2021/07/08 06:59:26;;;;;;;6.80;3.78;;;;;;;20.27;100.00;98214.31;5018307;28;20057;-85
2021/07/08 07:01:53;;;;;;;7.65;3.33;;;;;;;20.62;100.00;98205.94;5033724;28;20133;-85
2021/07/08 07:04:20;;;;;;;11.00;3.47;;;;;;;20.65;100.00;98213.44;4999547;28;20168;-84
2021/07/08 07:06:49;;;;;;;9.15;3.70;;;;;;;20.61;100.00;98188.63;5018287;28;20046;-85
2021/07/08 07:09:16;;;;;;;9.20;3.40;;;;;;;20.70;100.00;98196.63;5019087;28;20520;-85
2021/07/08 07:11:44;;;;;;;6.60;3.85;;;;;;;20.20;100.00;98190.22;5020495;28;20039;-83
2021/07/08 07:14:16;;;;;;;6.88;4.28;;;;;;;20.21;100.00;98204.72;5036301;28;20059;-84
2021/07/08 07:16:43;;;;;;;7.53;4.28;;;;;;;20.23;100.00;98219.75;5020790;28;20063;-84
2021/07/08 07:19:10;;;;;;;13.88;5.00;;;;;;;20.18;100.00;98221.97;5037746;28;20053;-84
2021/07/08 07:21:37;;;;;;;8.18;4.40;;;;;;;20.08;100.00;98212.34;5001131;28;20128;-84
2021/07/08 07:24:08;;;;;;;7.22;4.32;;;;;;;20.03;100.00;98217.34;5000817;28;20069;-84
2021/07/08 07:26:37;;;;;;;7.65;4.28;;;;;;;20.07;100.00;98226.47;5013791;28;20048;-84
2021/07/08 07:29:04;;;;;;;6.97;3.95;;;;;;;19.77;100.00;98215.22;5006879;28;20478;-84
2021/07/08 07:31:31;;;;;;;8.88;4.18;;;;;;;19.68;100.00;98225.66;5013600;28;20393;-84
2021/07/08 07:34:08;;;;;;;6.20;3.70;;;;;;;19.73;100.00;98241.84;4995018;28;20046;-84
2021/07/08 07:36:42;;;;;;;5.25;4.20;;;;;;;19.79;100.00;98240.41;5029742;28;20490;-85
2021/07/08 07:39:09;;;;;;;6.63;3.88;;;;;;;19.54;100.00;98241.81;5011020;28;20516;-85
2021/07/08 07:41:36;;;;;;;7.47;3.30;;;;;;;19.50;100.00;98244.50;4995532;28;20072;-84
2021/07/08 07:44:08;;;;;;;8.63;3.95;;;;;;;19.34;100.00;98249.19;4994654;28;20080;-85
2021/07/08 07:46:39;;;;;;;7.07;3.65;;;;;;;19.45;100.00;98252.19;5011784;28;20046;-84
2021/07/08 07:49:10;;;;;;;7.13;4.38;;;;;;;19.42;100.00;98250.97;5013201;28;20099;-84
2021/07/08 07:51:43;;;;;;;8.13;4.70;;;;;;;19.43;100.00;98258.06;5012561;28;20053;-85
2021/07/08 07:54:14;;;;;;;11.40;4.82;;;;;;;19.52;100.00;98253.16;5008269;28;20660;-85
2021/07/08 07:56:41;;;;;;;7.15;4.38;;;;;;;19.55;100.00;98241.47;5006282;28;20133;-85
2021/07/08 07:59:12;;;;;;;8.55;4.60;;;;;;;19.74;100.00;98224.22;5017170;28;20096;-86
2021/07/08 08:01:51;;;;;;;12.13;4.65;;;;;;;20.15;100.00;98228.19;5003080;28;20077;-85
2021/07/08 08:04:20;;;;;;;12.45;4.07;;;;;;;20.39;100.00;98225.13;5000857;28;20084;-83
2021/07/08 08:09:36;;;;;;;10.13;4.95;;;;;;;20.49;100.00;98221.81;5035231;28;20049;-84
2021/07/08 08:12:05;;;;;;;8.52;4.70;;;;;;;20.44;100.00;98222.88;5019284;28;20473;-85
2021/07/08 08:14:35;;;;;;;9.57;4.60;;;;;;;20.32;100.00;98217.56;5002231;28;20049;-84
2021/07/08 08:17:09;;;;;;;7.32;4.40;;;;;;;20.41;100.00;98218.09;5018180;28;20049;-84
2021/07/08 08:19:38;;;;;;;10.65;4.78;;;;;;;20.58;100.00;98233.38;4999948;28;20050;-84
2021/07/08 08:22:13;;;;;;;13.30;5.43;;;;;;;20.35;100.00;98230.59;5015577;28;20045;-84
2021/07/08 08:24:44;;;;;;;11.50;5.15;;;;;;;20.39;100.00;98223.19;4998830;28;20103;-83
2021/07/08 08:27:11;;;;;;;10.27;5.65;;;;;;;20.50;100.00;98224.19;4999387;28;20050;-83
2021/07/08 08:29:40;;;;;;;12.52;6.10;;;;;;;20.60;100.00;98233.78;5000347;28;20528;-83
2021/07/08 08:32:11;;;;;;;14.77;5.88;;;;;;;20.63;100.00;98227.56;5017366;28;20072;-85
2021/07/08 08:34:38;;;;;;;10.77;5.85;;;;;;;20.77;100.00;98232.53;5034367;23;20105;-84
2021/07/08 08:37:05;;;;;;;10.57;5.85;;;;;;;20.78;100.00;98234.09;4957873;28;20043;-84
2021/07/08 08:39:32;;;;;;;16.52;6.53;;;;;;;21.00;100.00;98234.09;4958149;28;20043;-84
2021/07/08 08:41:59;;;;;;;12.73;6.60;;;;;;;20.99;100.00;98226.19;4958913;28;20048;-83
2021/07/08 08:44:25;;;;;;;14.35;6.57;;;;;;;21.11;100.00;98224.06;4938448;29;20051;-84
2021/07/08 08:46:52;;;;;;;10.00;6.28;;;;;;;21.01;100.00;98223.88;4966888;29;20043;-84
2021/07/08 08:49:19;;;;;;;12.45;6.03;;;;;;;20.91;100.00;98214.28;4978235;23;20069;-82
2021/07/08 08:51:46;;;;;;;18.45;6.22;;;;;;;20.93;100.00;98222.97;5020618;28;20221;-81
2021/07/08 08:54:13;;;;;;;16.30;5.70;;;;;;;20.88;100.00;98217.75;5020548;28;20100;-82
2021/07/08 08:56:39;;;;;;;13.07;6.55;;;;;;;20.85;100.00;98217.72;5019549;28;20050;-82
2021/07/08 08:59:06;;;;;;;9.98;5.50;;;;;;;20.63;100.00;98229.50;5019886;28;20046;-81
2021/07/08 09:01:34;;;;;;;12.32;5.85;;;;;;;20.87;100.00;98218.94;5018050;28;20050;-82
2021/07/08 09:04:01;;;;;;;10.45;5.43;;;;;;;21.08;100.00;98207.50;5022169;28;20092;-82
2021/07/08 09:06:36;;;;;;;11.68;4.90;;;;;;;21.35;100.00;98214.59;5023063;28;20054;-82
2021/07/08 09:09:09;;;;;;;12.30;5.47;;;;;;;21.13;100.00;98209.16;5023934;28;20042;-83
2021/07/08 09:11:37;;;;;;;16.00;6.20;;;;;;;20.97;100.00;98212.81;5023692;28;20050;-80
2021/07/08 09:14:07;;;;;;;11.48;5.95;;;;;;;20.99;100.00;98206.94;5024764;28;20042;-81
2021/07/08 09:16:39;;;;;;;13.85;6.43;;;;;;;20.70;100.00;98202.91;5026648;28;20038;-83
2021/07/08 09:19:11;;;;;;;14.02;6.07;;;;;;;20.70;100.00;98211.16;5022184;28;20491;-82
2021/07/08 09:21:41;;;;;;;9.85;5.45;;;;;;;20.46;100.00;98214.28;5017382;28;20091;-82
2021/07/08 09:24:34;;;;;;;9.90;5.88;;;;;;;20.21;100.00;98202.78;5018254;28;20045;-83
2021/07/08 09:27:08;;;;;;;12.50;5.97;;;;;;;20.25;100.00;98213.88;5017770;28;20049;-82
2021/07/08 09:29:36;;;;;;;12.57;5.30;;;;;;;20.17;100.00;98210.19;5016340;28;20049;-81
2021/07/08 09:32:15;;;;;;;8.02;5.20;;;;;;;19.94;100.00;98219.50;4999506;28;20045;-82
2021/07/08 09:34:46;;;;;;;14.65;5.57;;;;;;;19.89;100.00;98215.09;5017403;28;20107;-82
2021/07/08 09:37:18;;;;;;;11.23;5.78;;;;;;;19.89;100.00;98224.16;4999817;28;20046;-81
2021/07/08 09:39:54;;;;;;;10.27;5.35;;;;;;;19.84;100.00;98231.88;5018060;28;20061;-81
2021/07/08 09:42:39;;;;;;;8.50;5.60;;;;;;;19.81;100.00;98255.38;5017277;28;20061;-82
2021/07/08 09:45:12;;;;;;;12.07;5.70;;;;;;;19.56;100.00;98266.97;5014524;28;20044;-81
2021/07/08 09:47:42;;;;;;;12.85;5.60;;;;;;;19.44;100.00;98267.88;5015908;28;20225;-81
2021/07/08 09:50:14;;;;;;;12.88;6.50;;;;;;;19.27;100.00;98282.75;5015408;28;20052;-80
2021/07/08 09:52:42;;;;;;;7.78;5.43;;;;;;;19.22;100.00;98280.28;5016034;28;20053;-80
2021/07/08 09:55:18;;;;;;;9.95;6.28;;;;;;;19.25;100.00;98262.31;5016210;28;20513;-82
2021/07/08 09:57:46;;;;;;;12.35;7.55;;;;;;;19.20;100.00;98270.81;5015887;28;20034;-81
2021/07/08 10:00:22;;;;;;;14.60;7.40;;;;;;;19.05;100.00;98288.06;5015176;28;20520;-81
2021/07/08 10:02:51;;;;;;;14.57;8.15;;;;;;;18.93;100.00;98286.22;5016576;28;20042;-82
2021/07/08 10:05:18;;;;;;;20.70;7.78;;;;;;;18.68;100.00;98282.81;4998586;28;20413;-81
2021/07/08 10:07:46;;;;;;;11.73;8.43;;;;;;;18.59;100.00;98301.38;5016839;28;20382;-81
2021/07/08 10:10:14;;;;;;;20.25;8.60;;;;;;;18.52;100.00;98300.41;5015774;28;20042;-81
2021/07/08 10:12:45;;;;;;;13.38;9.50;;;;;;;18.56;100.00;98276.59;5016752;28;20326;-82
2021/07/08 10:15:13;;;;;;;17.42;9.50;;;;;;;18.53;100.00;98285.56;5016593;28;20049;-81
2021/07/08 10:17:41;;;;;;;13.88;9.32;;;;;;;18.56;100.00;98282.88;5017285;28;20037;-81
2021/07/08 10:20:13;;;;;;;17.25;9.85;;;;;;;18.74;100.00;98272.38;5016766;28;20041;-81
2021/07/08 10:22:39;;;;;;;14.70;8.80;;;;;;;18.93;100.00;98263.47;5016379;28;20050;-81
2021/07/08 10:25:08;;;;;;;18.40;8.02;;;;;;;18.94;100.00;98263.13;5018320;28;20096;-82
2021/07/08 10:27:41;;;;;;;13.75;7.20;;;;;;;18.70;100.00;98246.03;5018524;28;20042;-81
2021/07/08 10:30:08;;;;;;;14.75;7.25;;;;;;;18.72;100.00;98260.97;5018036;28;20053;-81
2021/07/08 10:32:36;;;;;;;10.88;7.78;;;;;;;18.76;100.00;98270.13;5018504;28;20049;-83
2021/07/08 10:35:03;;;;;;;17.27;8.75;;;;;;;18.54;100.00;98285.19;5017651;28;20069;-83
2021/07/08 10:37:40;;;;;;;20.35;11.10;;;;;;;18.51;100.00;98298.81;5017774;28;20115;-81
2021/07/08 10:40:27;;;;;;;20.38;10.15;;;;;;;18.62;100.00;98286.19;5016539;28;20141;-82
2021/07/08 10:42:55;;;;;;;14.93;9.95;;;;;;;18.80;100.00;98259.22;5018388;28;20061;-82
2021/07/08 10:45:22;;;;;;;15.75;10.32;;;;;;;19.12;100.00;98242.38;5017314;28;20050;-80
2021/07/08 10:47:51;;;;;;;15.68;10.13;;;;;;;19.20;100.00;98235.13;5017700;28;20125;-82
2021/07/08 10:50:43;;;;;;;21.17;10.30;;;;;;;19.18;100.00;98229.97;5017983;28;20045;-81
2021/07/08 10:53:18;;;;;;;15.93;8.38;;;;;;;19.12;100.00;98231.41;5015617;28;20079;-82
2021/07/08 10:55:47;;;;;;;13.73;8.35;;;;;;;19.11;100.00;98232.56;5013902;28;20414;-82
2021/07/08 10:58:36;;;;;;;14.52;8.68;;;;;;;18.93;100.00;98236.03;5015212;28;20042;-82
2021/07/08 11:01:03;;;;;;;16.15;9.52;;;;;;;18.97;100.00;98221.22;5013963;28;20052;-81
2021/07/08 11:03:41;;;;;;;16.02;9.52;;;;;;;19.16;100.00;98235.03;5013621;28;20602;-80
2021/07/08 11:06:29;;;;;;;12.43;7.50;;;;;;;19.03;100.00;98216.28;5012299;28;20038;-83
2021/07/08 11:09:03;;;;;;;17.25;7.97;;;;;;;19.17;100.00;98227.59;5013586;28;20085;-81
2021/07/08 11:11:30;;;;;;;11.48;7.60;;;;;;;19.45;100.00;98217.31;5013997;28;20093;-80
2021/07/08 11:14:19;;;;;;;6.97;6.03;;;;;;;19.69;100.00;98219.78;5013446;28;20100;-79
2021/07/08 11:16:53;;;;;;;7.03;4.53;;;;;;;19.73;100.00;98220.66;5014094;28;20668;-81
2021/07/08 11:19:20;;;;;;;7.80;4.05;;;;;;;19.75;100.00;98215.59;5014040;28;20115;-81
2021/07/08 11:21:49;;;;;;;11.75;4.78;;;;;;;20.00;100.00;98220.81;5013963;28;20130;-82
2021/07/08 11:24:16;;;;;;;8.18;4.13;;;;;;;20.20;100.00;98217.69;5013367;28;20053;-79
2021/07/08 11:26:50;;;;;;;5.90;3.85;;;;;;;20.53;100.00;98219.91;5013671;28;20107;-81
2021/07/08 11:29:38;;;;;;;6.88;3.03;;;;;;;20.88;100.00;98205.97;5011217;28;20038;-79
2021/07/08 11:32:41;;;;;;;4.70;2.47;;;;;;;20.87;100.00;98224.44;5012518;28;20053;-79